sensor_id;sensor_type;location;lat;lon;timestamp;pressure;altitude;pressure_sealevel;temperature;humidity
24892;BME280;12954;50.688;10.908;2023-02-10T00:02:18;97151.56;;;-2.88;48.02
24892;BME280;12954;50.688;10.908;2023-02-10T00:04:46;97137.13;;;-3.01;47.62
24892;BME280;12954;50.688;10.908;2023-02-10T00:07:15;97154.81;;;-2.94;48.38
24892;BME280;12954;50.688;10.908;2023-02-10T00:09:45;97156.44;;;-3.01;48.02
24892;BME280;12954;50.688;10.908;2023-02-10T00:12:14;97163.84;;;-3.04;48.19
24892;BME280;12954;50.688;10.908;2023-02-10T00:14:44;97159.50;;;-3.13;48.46
24892;BME280;12954;50.688;10.908;2023-02-10T00:17:13;97161.31;;;-3.14;48.57
24892;BME280;12954;50.688;10.908;2023-02-10T00:19:45;97163.72;;;-3.20;48.24
24892;BME280;12954;50.688;10.908;2023-02-10T00:22:15;97149.09;;;-3.40;48.83
24892;BME280;12954;50.688;10.908;2023-02-10T00:24:46;97165.78;;;-3.32;48.85
24892;BME280;12954;50.688;10.908;2023-02-10T00:27:16;97167.25;;;-3.37;48.74
24892;BME280;12954;50.688;10.908;2023-02-10T00:29:50;97116.38;;;-3.73;48.64
24892;BME280;12954;50.688;10.908;2023-02-10T00:32:18;97141.31;;;-3.68;48.81
24892;BME280;12954;50.688;10.908;2023-02-10T00:34:47;97168.34;;;-3.48;48.94
24892;BME280;12954;50.688;10.908;2023-02-10T00:37:16;97176.38;;;-3.50;48.75
24892;BME280;12954;50.688;10.908;2023-02-10T00:39:46;97177.00;;;-3.56;48.64
24892;BME280;12954;50.688;10.908;2023-02-10T00:42:15;97155.78;;;-3.89;49.40
24892;BME280;12954;50.688;10.908;2023-02-10T00:44:43;97186.00;;;-3.84;49.67
24892;BME280;12954;50.688;10.908;2023-02-10T00:47:12;97181.00;;;-3.87;49.93
24892;BME280;12954;50.688;10.908;2023-02-10T00:49:42;97182.97;;;-3.89;49.86
24892;BME280;12954;50.688;10.908;2023-02-10T00:52:11;97186.59;;;-3.90;49.83
24892;BME280;12954;50.688;10.908;2023-02-10T00:54:39;97162.56;;;-4.05;50.08
24892;BME280;12954;50.688;10.908;2023-02-10T00:57:10;97186.34;;;-3.96;49.82
24892;BME280;12954;50.688;10.908;2023-02-10T00:59:39;97179.94;;;-3.94;50.02
24892;BME280;12954;50.688;10.908;2023-02-10T01:02:07;97176.34;;;-3.93;50.47
24892;BME280;12954;50.688;10.908;2023-02-10T01:04:36;97173.41;;;-3.90;50.28
24892;BME280;12954;50.688;10.908;2023-02-10T01:07:04;97172.97;;;-3.85;49.68
24892;BME280;12954;50.688;10.908;2023-02-10T01:09:33;97118.59;;;-4.22;49.87
24892;BME280;12954;50.688;10.908;2023-02-10T01:12:02;97165.50;;;-3.90;50.10
24892;BME280;12954;50.688;10.908;2023-02-10T01:14:33;97172.75;;;-3.92;50.26
24892;BME280;12954;50.688;10.908;2023-02-10T01:17:02;97170.16;;;-4.02;50.30
24892;BME280;12954;50.688;10.908;2023-02-10T01:19:30;97184.41;;;-3.94;50.27
24892;BME280;12954;50.688;10.908;2023-02-10T01:21:59;97177.94;;;-4.00;50.19
24892;BME280;12954;50.688;10.908;2023-02-10T01:24:27;97176.94;;;-3.99;50.42
24892;BME280;12954;50.688;10.908;2023-02-10T01:26:55;97175.59;;;-4.03;50.33
24892;BME280;12954;50.688;10.908;2023-02-10T01:29:24;97171.44;;;-4.06;50.39
24892;BME280;12954;50.688;10.908;2023-02-10T01:31:54;97169.56;;;-4.13;50.73
24892;BME280;12954;50.688;10.908;2023-02-10T01:34:22;97179.50;;;-4.07;50.46
24892;BME280;12954;50.688;10.908;2023-02-10T01:36:51;97179.59;;;-3.99;50.34
24892;BME280;12954;50.688;10.908;2023-02-10T01:39:20;97106.31;;;-4.48;50.40
24892;BME280;12954;50.688;10.908;2023-02-10T01:41:49;97197.34;;;-4.19;51.11
24892;BME280;12954;50.688;10.908;2023-02-10T01:47:40;97191.25;;;-4.19;51.43
24892;BME280;12954;50.688;10.908;2023-02-10T01:50:10;97193.66;;;-4.08;51.13
24892;BME280;12954;50.688;10.908;2023-02-10T01:52:40;97197.66;;;-4.04;50.83
24892;BME280;12954;50.688;10.908;2023-02-10T01:55:10;97200.59;;;-4.07;50.95
24892;BME280;12954;50.688;10.908;2023-02-10T01:57:42;97200.22;;;-4.12;51.94
24892;BME280;12954;50.688;10.908;2023-02-10T02:00:13;97207.53;;;-4.06;51.65
24892;BME280;12954;50.688;10.908;2023-02-10T02:02:44;97151.31;;;-4.42;51.53
24892;BME280;12954;50.688;10.908;2023-02-10T02:05:22;97170.81;;;-4.17;52.09
24892;BME280;12954;50.688;10.908;2023-02-10T02:07:56;97156.09;;;-4.10;51.89
24892;BME280;12954;50.688;10.908;2023-02-10T02:10:34;97195.88;;;-3.86;52.29
24892;BME280;12954;50.688;10.908;2023-02-10T02:13:11;97165.06;;;-4.03;51.49
24892;BME280;12954;50.688;10.908;2023-02-10T02:15:47;97159.78;;;-4.03;51.87
24892;BME280;12954;50.688;10.908;2023-02-10T02:18:26;97200.84;;;-3.65;51.96
24892;BME280;12954;50.688;10.908;2023-02-10T02:24:32;97214.00;;;-3.48;51.72
24892;BME280;12954;50.688;10.908;2023-02-10T02:27:29;97211.75;;;-3.60;52.00
24892;BME280;12954;50.688;10.908;2023-02-10T02:33:12;97186.75;;;-3.74;51.82
24892;BME280;12954;50.688;10.908;2023-02-10T02:35:47;97211.59;;;-3.59;52.09
24892;BME280;12954;50.688;10.908;2023-02-10T02:38:18;97175.13;;;-3.81;52.03
24892;BME280;12954;50.688;10.908;2023-02-10T02:40:46;97126.13;;;-4.09;52.26
24892;BME280;12954;50.688;10.908;2023-02-10T02:43:15;97208.66;;;-3.56;52.68
24892;BME280;12954;50.688;10.908;2023-02-10T02:45:52;97212.94;;;-3.55;52.13
24892;BME280;12954;50.688;10.908;2023-02-10T02:48:40;97203.75;;;-3.51;52.36
24892;BME280;12954;50.688;10.908;2023-02-10T02:51:17;97206.69;;;-3.36;52.26
24892;BME280;12954;50.688;10.908;2023-02-10T02:53:55;97205.91;;;-3.28;52.66
24892;BME280;12954;50.688;10.908;2023-02-10T02:56:34;97159.38;;;-3.55;52.49
24892;BME280;12954;50.688;10.908;2023-02-10T02:59:11;97170.56;;;-3.35;52.65
24892;BME280;12954;50.688;10.908;2023-02-10T03:01:45;97136.19;;;-3.44;52.51
24892;BME280;12954;50.688;10.908;2023-02-10T03:04:18;97194.47;;;-3.11;54.10
24892;BME280;12954;50.688;10.908;2023-02-10T03:06:46;97194.91;;;-2.98;52.37
24892;BME280;12954;50.688;10.908;2023-02-10T03:09:15;97160.34;;;-3.13;52.63
24892;BME280;12954;50.688;10.908;2023-02-10T03:11:44;97198.09;;;-2.87;53.00
24892;BME280;12954;50.688;10.908;2023-02-10T03:14:13;97191.69;;;-2.84;53.19
24892;BME280;12954;50.688;10.908;2023-02-10T03:16:42;97134.03;;;-3.22;53.78
24892;BME280;12954;50.688;10.908;2023-02-10T03:19:11;97180.38;;;-2.94;53.32
24892;BME280;12954;50.688;10.908;2023-02-10T03:21:42;97168.19;;;-2.95;52.87
24892;BME280;12954;50.688;10.908;2023-02-10T03:24:11;97170.88;;;-2.87;53.28
24892;BME280;12954;50.688;10.908;2023-02-10T03:26:40;97175.22;;;-2.78;53.55
24892;BME280;12954;50.688;10.908;2023-02-10T03:29:11;97203.03;;;-2.58;53.73
24892;BME280;12954;50.688;10.908;2023-02-10T03:31:40;97214.31;;;-2.48;53.71
24892;BME280;12954;50.688;10.908;2023-02-10T03:34:10;97194.16;;;-2.49;54.11
24892;BME280;12954;50.688;10.908;2023-02-10T03:36:39;97207.59;;;-2.34;54.35
24892;BME280;12954;50.688;10.908;2023-02-10T03:39:09;97217.03;;;-2.23;54.30
24892;BME280;12954;50.688;10.908;2023-02-10T03:41:37;97217.22;;;-2.17;54.17
24892;BME280;12954;50.688;10.908;2023-02-10T03:44:06;97225.19;;;-2.09;53.97
24892;BME280;12954;50.688;10.908;2023-02-10T03:46:35;97197.25;;;-2.11;54.63
24892;BME280;12954;50.688;10.908;2023-02-10T03:49:05;97221.94;;;-1.95;54.09
24892;BME280;12954;50.688;10.908;2023-02-10T03:51:34;97223.78;;;-1.87;55.03
24892;BME280;12954;50.688;10.908;2023-02-10T03:54:03;97233.19;;;-1.85;54.87
24892;BME280;12954;50.688;10.908;2023-02-10T03:56:34;97229.25;;;-1.81;55.07
24892;BME280;12954;50.688;10.908;2023-02-10T03:59:04;97235.03;;;-1.77;55.19
24892;BME280;12954;50.688;10.908;2023-02-10T04:01:33;97238.34;;;-1.75;54.85
24892;BME280;12954;50.688;10.908;2023-02-10T04:04:01;97240.66;;;-1.72;55.51
24892;BME280;12954;50.688;10.908;2023-02-10T04:06:30;97243.66;;;-1.67;55.18
24892;BME280;12954;50.688;10.908;2023-02-10T04:08:59;97241.84;;;-1.66;55.29
24892;BME280;12954;50.688;10.908;2023-02-10T04:11:27;97246.63;;;-1.62;55.55
24892;BME280;12954;50.688;10.908;2023-02-10T04:13:57;97250.63;;;-1.58;55.76
24892;BME280;12954;50.688;10.908;2023-02-10T04:16:25;97246.66;;;-1.54;55.30
24892;BME280;12954;50.688;10.908;2023-02-10T04:18:54;97231.25;;;-1.66;55.77
24892;BME280;12954;50.688;10.908;2023-02-10T04:21:23;97240.03;;;-1.66;55.93
24892;BME280;12954;50.688;10.908;2023-02-10T04:23:52;97259.56;;;-1.43;55.61
24892;BME280;12954;50.688;10.908;2023-02-10T04:26:20;97227.78;;;-1.59;56.24
24892;BME280;12954;50.688;10.908;2023-02-10T04:28:49;97259.75;;;-1.36;55.67
24892;BME280;12954;50.688;10.908;2023-02-10T04:31:19;97257.75;;;-1.34;55.89
24892;BME280;12954;50.688;10.908;2023-02-10T04:33:47;97249.63;;;-1.33;56.42
24892;BME280;12954;50.688;10.908;2023-02-10T04:36:16;97259.56;;;-1.27;56.27
24892;BME280;12954;50.688;10.908;2023-02-10T04:38:44;97253.94;;;-1.24;56.49
24892;BME280;12954;50.688;10.908;2023-02-10T04:41:13;97267.88;;;-1.22;56.13
24892;BME280;12954;50.688;10.908;2023-02-10T04:43:41;97271.81;;;-1.18;56.20
24892;BME280;12954;50.688;10.908;2023-02-10T04:46:11;97239.72;;;-1.31;56.43
24892;BME280;12954;50.688;10.908;2023-02-10T04:48:40;97211.59;;;-1.48;56.62
24892;BME280;12954;50.688;10.908;2023-02-10T04:51:10;97270.50;;;-1.13;57.13
24892;BME280;12954;50.688;10.908;2023-02-10T04:53:39;97273.66;;;-1.10;56.46
24892;BME280;12954;50.688;10.908;2023-02-10T04:56:10;97253.28;;;-1.18;56.78
24892;BME280;12954;50.688;10.908;2023-02-10T04:58:40;97245.03;;;-1.23;57.19
24892;BME280;12954;50.688;10.908;2023-02-10T05:01:09;97271.47;;;-1.06;56.95
24892;BME280;12954;50.688;10.908;2023-02-10T05:03:40;97247.69;;;-1.31;57.15
24892;BME280;12954;50.688;10.908;2023-02-10T05:06:12;97286.75;;;-0.92;56.78
24892;BME280;12954;50.688;10.908;2023-02-10T05:08:41;97292.69;;;-0.90;57.15
24892;BME280;12954;50.688;10.908;2023-02-10T05:11:11;97287.06;;;-0.87;57.04
24892;BME280;12954;50.688;10.908;2023-02-10T05:13:40;97286.72;;;-0.84;56.97
24892;BME280;12954;50.688;10.908;2023-02-10T05:16:11;97284.72;;;-0.82;57.36
24892;BME280;12954;50.688;10.908;2023-02-10T05:18:42;97286.06;;;-0.78;57.18
24892;BME280;12954;50.688;10.908;2023-02-10T05:21:12;97280.75;;;-0.78;57.77
24892;BME280;12954;50.688;10.908;2023-02-10T05:23:41;97274.47;;;-0.85;57.89
24892;BME280;12954;50.688;10.908;2023-02-10T05:26:10;97285.06;;;-0.69;57.92
24892;BME280;12954;50.688;10.908;2023-02-10T05:28:38;97282.72;;;-0.64;57.80
24892;BME280;12954;50.688;10.908;2023-02-10T05:31:07;97280.06;;;-0.56;57.89
24892;BME280;12954;50.688;10.908;2023-02-10T05:33:35;97280.41;;;-0.51;57.47
24892;BME280;12954;50.688;10.908;2023-02-10T05:36:06;97276.41;;;-0.55;57.32
24892;BME280;12954;50.688;10.908;2023-02-10T05:38:35;97284.34;;;-0.47;57.73
24892;BME280;12954;50.688;10.908;2023-02-10T05:41:04;97287.69;;;-0.45;57.69
24892;BME280;12954;50.688;10.908;2023-02-10T05:43:32;97287.31;;;-0.42;57.62
24892;BME280;12954;50.688;10.908;2023-02-10T05:46:00;97283.34;;;-0.38;57.62
24892;BME280;12954;50.688;10.908;2023-02-10T05:48:29;97281.19;;;-0.34;57.51
24892;BME280;12954;50.688;10.908;2023-02-10T05:50:57;97279.34;;;-0.34;57.62
24892;BME280;12954;50.688;10.908;2023-02-10T05:53:27;97271.41;;;-0.42;57.62
24892;BME280;12954;50.688;10.908;2023-02-10T05:55:56;97285.16;;;-0.30;57.46
24892;BME280;12954;50.688;10.908;2023-02-10T05:58:24;97285.31;;;-0.32;57.37
24892;BME280;12954;50.688;10.908;2023-02-10T06:00:54;97282.50;;;-0.38;57.34
24892;BME280;12954;50.688;10.908;2023-02-10T06:03:23;97288.66;;;-0.46;57.60
24892;BME280;12954;50.688;10.908;2023-02-10T06:05:51;97291.47;;;-0.47;57.01
24892;BME280;12954;50.688;10.908;2023-02-10T06:08:20;97260.88;;;-0.74;57.41
24892;BME280;12954;50.688;10.908;2023-02-10T06:10:50;97290.81;;;-0.49;57.01
24892;BME280;12954;50.688;10.908;2023-02-10T06:13:18;97260.06;;;-0.75;56.99
24892;BME280;12954;50.688;10.908;2023-02-10T06:15:46;97291.66;;;-0.65;56.58
24892;BME280;12954;50.688;10.908;2023-02-10T06:18:15;97270.81;;;-1.00;56.73
24892;BME280;12954;50.688;10.908;2023-02-10T06:20:45;97302.78;;;-0.94;56.70
24892;BME280;12954;50.688;10.908;2023-02-10T06:23:13;97322.50;;;-0.80;56.68
24892;BME280;12954;50.688;10.908;2023-02-10T06:25:42;97311.22;;;-0.90;56.85
24892;BME280;12954;50.688;10.908;2023-02-10T06:28:12;97287.03;;;-1.03;56.93
24892;BME280;12954;50.688;10.908;2023-02-10T06:30:41;97325.81;;;-0.78;56.37
24892;BME280;12954;50.688;10.908;2023-02-10T06:33:10;97331.09;;;-0.78;56.75
24892;BME280;12954;50.688;10.908;2023-02-10T06:35:38;97343.53;;;-0.79;56.46
24892;BME280;12954;50.688;10.908;2023-02-10T06:38:06;97333.75;;;-0.78;57.08
24892;BME280;12954;50.688;10.908;2023-02-10T06:40:35;97325.28;;;-0.74;56.70
24892;BME280;12954;50.688;10.908;2023-02-10T06:43:03;97265.53;;;-1.00;56.66
24892;BME280;12954;50.688;10.908;2023-02-10T06:45:33;97329.44;;;-0.71;57.22
24892;BME280;12954;50.688;10.908;2023-02-10T06:48:01;97338.06;;;-0.69;56.72
24892;BME280;12954;50.688;10.908;2023-02-10T06:50:30;97330.75;;;-0.67;57.19
24892;BME280;12954;50.688;10.908;2023-02-10T06:52:58;97312.22;;;-0.83;57.08
24892;BME280;12954;50.688;10.908;2023-02-10T06:55:27;97328.44;;;-0.70;57.19
24892;BME280;12954;50.688;10.908;2023-02-10T06:57:58;97333.72;;;-0.62;56.84
24892;BME280;12954;50.688;10.908;2023-02-10T07:00:27;97303.97;;;-0.80;56.96
24892;BME280;12954;50.688;10.908;2023-02-10T07:02:57;97343.34;;;-0.53;57.44
24892;BME280;12954;50.688;10.908;2023-02-10T07:05:26;97330.06;;;-0.53;57.15
24892;BME280;12954;50.688;10.908;2023-02-10T07:07:54;97334.41;;;-0.52;57.38
24892;BME280;12954;50.688;10.908;2023-02-10T07:10:25;97337.06;;;-0.52;57.23
24892;BME280;12954;50.688;10.908;2023-02-10T07:12:53;97341.38;;;-0.51;57.62
24892;BME280;12954;50.688;10.908;2023-02-10T07:15:22;97342.00;;;-0.49;57.27
24892;BME280;12954;50.688;10.908;2023-02-10T07:17:51;97299.97;;;-0.76;57.07
24892;BME280;12954;50.688;10.908;2023-02-10T07:20:22;97341.50;;;-0.44;57.07
24892;BME280;12954;50.688;10.908;2023-02-10T07:22:50;97346.66;;;-0.51;57.22
24892;BME280;12954;50.688;10.908;2023-02-10T07:25:19;97345.34;;;-0.55;57.00
24892;BME280;12954;50.688;10.908;2023-02-10T07:27:48;97286.06;;;-0.94;57.33
24892;BME280;12954;50.688;10.908;2023-02-10T07:30:16;97351.13;;;-0.51;57.31
24892;BME280;12954;50.688;10.908;2023-02-10T07:32:44;97341.69;;;-0.46;56.93
24892;BME280;12954;50.688;10.908;2023-02-10T07:35:13;97342.34;;;-0.44;57.21
24892;BME280;12954;50.688;10.908;2023-02-10T07:37:43;97319.16;;;-0.58;57.21
24892;BME280;12954;50.688;10.908;2023-02-10T07:40:12;97322.13;;;-0.53;56.86
24892;BME280;12954;50.688;10.908;2023-02-10T07:42:40;97339.00;;;-0.30;57.16
24892;BME280;12954;50.688;10.908;2023-02-10T07:45:09;97352.38;;;-0.15;56.91
24892;BME280;12954;50.688;10.908;2023-02-10T07:47:39;97359.50;;;-0.08;56.83
24892;BME280;12954;50.688;10.908;2023-02-10T07:50:07;97292.00;;;-0.52;56.93
24892;BME280;12954;50.688;10.908;2023-02-10T07:52:36;97373.75;;;0.08;56.75
24892;BME280;12954;50.688;10.908;2023-02-10T07:55:06;97386.47;;;0.12;56.22
24892;BME280;12954;50.688;10.908;2023-02-10T07:57:35;97389.16;;;0.04;56.06
24892;BME280;12954;50.688;10.908;2023-02-10T08:00:07;97392.50;;;-0.18;56.23
24892;BME280;12954;50.688;10.908;2023-02-10T08:02:35;97384.72;;;-0.36;56.27
24892;BME280;12954;50.688;10.908;2023-02-10T08:05:04;97406.31;;;-0.31;56.53
24892;BME280;12954;50.688;10.908;2023-02-10T08:07:33;97405.28;;;-0.30;56.25
24892;BME280;12954;50.688;10.908;2023-02-10T08:10:01;97398.69;;;-0.34;56.20
24892;BME280;12954;50.688;10.908;2023-02-10T08:12:31;97405.28;;;-0.38;56.12
24892;BME280;12954;50.688;10.908;2023-02-10T08:15:00;97391.72;;;-0.51;56.15
24892;BME280;12954;50.688;10.908;2023-02-10T08:17:29;97417.56;;;-0.37;56.41
24892;BME280;12954;50.688;10.908;2023-02-10T08:19:57;97401.66;;;-0.37;56.57
24892;BME280;12954;50.688;10.908;2023-02-10T08:22:26;97396.19;;;-0.35;56.37
24892;BME280;12954;50.688;10.908;2023-02-10T08:24:54;97394.03;;;-0.32;56.40
24892;BME280;12954;50.688;10.908;2023-02-10T08:27:23;97380.44;;;-0.37;56.46
24892;BME280;12954;50.688;10.908;2023-02-10T08:29:53;97402.13;;;-0.17;56.64
24892;BME280;12954;50.688;10.908;2023-02-10T08:32:21;97388.00;;;-0.10;56.13
24892;BME280;12954;50.688;10.908;2023-02-10T08:34:51;97385.03;;;-0.15;56.61
24892;BME280;12954;50.688;10.908;2023-02-10T08:37:20;97383.88;;;-0.04;55.97
24892;BME280;12954;50.688;10.908;2023-02-10T08:39:48;97397.28;;;0.11;55.98
24892;BME280;12954;50.688;10.908;2023-02-10T08:42:17;97358.16;;;0.05;55.75
24892;BME280;12954;50.688;10.908;2023-02-10T08:44:45;97381.31;;;0.19;55.77
24892;BME280;12954;50.688;10.908;2023-02-10T08:47:15;97388.09;;;0.29;55.87
24892;BME280;12954;50.688;10.908;2023-02-10T08:49:43;97388.22;;;0.36;55.97
24892;BME280;12954;50.688;10.908;2023-02-10T08:52:12;97339.06;;;0.09;55.86
24892;BME280;12954;50.688;10.908;2023-02-10T08:54:40;97385.69;;;0.50;55.70
24892;BME280;12954;50.688;10.908;2023-02-10T08:57:09;97326.25;;;0.21;55.58
24892;BME280;12954;50.688;10.908;2023-02-10T08:59:37;97363.97;;;0.47;55.71
24892;BME280;12954;50.688;10.908;2023-02-10T09:02:06;97332.19;;;0.31;55.56
24892;BME280;12954;50.688;10.908;2023-02-10T09:04:36;97400.00;;;0.80;55.26
24892;BME280;12954;50.688;10.908;2023-02-10T09:07:04;97389.31;;;0.88;55.04
24892;BME280;12954;50.688;10.908;2023-02-10T09:09:37;97383.41;;;0.78;54.77
24892;BME280;12954;50.688;10.908;2023-02-10T09:12:06;97373.03;;;0.91;54.41
24892;BME280;12954;50.688;10.908;2023-02-10T09:14:37;97387.34;;;0.82;54.45
24892;BME280;12954;50.688;10.908;2023-02-10T09:17:07;97395.28;;;0.90;54.66
24892;BME280;12954;50.688;10.908;2023-02-10T09:19:38;97363.66;;;0.73;54.60
24892;BME280;12954;50.688;10.908;2023-02-10T09:22:07;97396.88;;;0.99;54.56
24892;BME280;12954;50.688;10.908;2023-02-10T09:24:35;97400.22;;;1.01;54.71
24892;BME280;12954;50.688;10.908;2023-02-10T09:27:04;97394.91;;;1.01;54.45
24892;BME280;12954;50.688;10.908;2023-02-10T09:29:32;97394.78;;;1.18;54.15
24892;BME280;12954;50.688;10.908;2023-02-10T09:32:00;97381.19;;;1.13;54.04
24892;BME280;12954;50.688;10.908;2023-02-10T09:34:29;97350.09;;;0.90;54.06
24892;BME280;12954;50.688;10.908;2023-02-10T09:37:00;97396.22;;;1.28;53.69
24892;BME280;12954;50.688;10.908;2023-02-10T09:39:29;97401.88;;;1.25;53.71
24892;BME280;12954;50.688;10.908;2023-02-10T09:42:03;97366.66;;;1.00;53.57
24892;BME280;12954;50.688;10.908;2023-02-10T09:44:35;97375.41;;;1.09;53.50
24892;BME280;12954;50.688;10.908;2023-02-10T09:47:24;97390.22;;;1.26;53.24
24892;BME280;12954;50.688;10.908;2023-02-10T09:50:26;97401.94;;;1.40;53.02
24892;BME280;12954;50.688;10.908;2023-02-10T09:53:07;97400.69;;;1.50;52.83
24892;BME280;12954;50.688;10.908;2023-02-10T09:55:39;97410.03;;;1.46;53.08
24892;BME280;12954;50.688;10.908;2023-02-10T09:58:16;97409.66;;;1.49;53.21
24892;BME280;12954;50.688;10.908;2023-02-10T10:00:47;97406.50;;;1.54;53.08
24892;BME280;12954;50.688;10.908;2023-02-10T10:03:18;97406.66;;;1.75;52.74
24892;BME280;12954;50.688;10.908;2023-02-10T10:05:57;97349.47;;;1.34;52.70
24892;BME280;12954;50.688;10.908;2023-02-10T10:08:36;97415.00;;;1.72;52.38
24892;BME280;12954;50.688;10.908;2023-02-10T10:11:22;97412.41;;;1.87;52.15
24892;BME280;12954;50.688;10.908;2023-02-10T10:13:53;97415.91;;;1.79;52.02
24892;BME280;12954;50.688;10.908;2023-02-10T10:19:37;97426.09;;;1.98;52.09
24892;BME280;12954;50.688;10.908;2023-02-10T10:22:26;97406.00;;;1.96;51.83
24892;BME280;12954;50.688;10.908;2023-02-10T10:25:22;97411.06;;;2.20;50.90
24892;BME280;12954;50.688;10.908;2023-02-10T10:28:07;97410.53;;;2.25;50.74
24892;BME280;12954;50.688;10.908;2023-02-10T10:30:42;97404.63;;;2.14;51.00
24892;BME280;12954;50.688;10.908;2023-02-10T10:33:20;97401.69;;;2.09;50.93
24892;BME280;12954;50.688;10.908;2023-02-10T10:35:50;97375.06;;;1.95;51.31
24892;BME280;12954;50.688;10.908;2023-02-10T10:38:21;97408.94;;;2.15;51.28
24892;BME280;12954;50.688;10.908;2023-02-10T10:40:54;97406.94;;;2.17;51.10
24892;BME280;12954;50.688;10.908;2023-02-10T10:43:24;97412.53;;;2.22;51.27
24892;BME280;12954;50.688;10.908;2023-02-10T10:45:57;97400.78;;;2.32;50.77
24892;BME280;12954;50.688;10.908;2023-02-10T10:48:30;97296.38;;;1.78;50.86
24892;BME280;12954;50.688;10.908;2023-02-10T10:51:01;97402.63;;;2.46;50.66
24892;BME280;12954;50.688;10.908;2023-02-10T10:53:37;97346.53;;;2.18;50.49
24892;BME280;12954;50.688;10.908;2023-02-10T10:56:13;97414.75;;;2.63;50.57
24892;BME280;12954;50.688;10.908;2023-02-10T10:58:45;97404.63;;;2.73;50.23
24892;BME280;12954;50.688;10.908;2023-02-10T11:01:16;97401.22;;;2.79;50.16
24892;BME280;12954;50.688;10.908;2023-02-10T11:03:45;97399.47;;;2.86;49.80
24892;BME280;12954;50.688;10.908;2023-02-10T11:06:15;97400.81;;;2.97;49.64
24892;BME280;12954;50.688;10.908;2023-02-10T11:08:52;97400.81;;;2.97;49.75
24892;BME280;12954;50.688;10.908;2023-02-10T11:11:31;97353.09;;;2.66;49.78
24892;BME280;12954;50.688;10.908;2023-02-10T11:14:13;97351.03;;;2.83;49.57
24892;BME280;12954;50.688;10.908;2023-02-10T11:16:45;97392.78;;;3.11;49.54
24892;BME280;12954;50.688;10.908;2023-02-10T11:19:20;97393.31;;;3.21;49.42
24892;BME280;12954;50.688;10.908;2023-02-10T11:21:50;97387.72;;;3.38;48.79
24892;BME280;12954;50.688;10.908;2023-02-10T11:24:21;97383.25;;;3.23;48.64
24892;BME280;12954;50.688;10.908;2023-02-10T11:26:57;97389.00;;;3.42;48.79
24892;BME280;12954;50.688;10.908;2023-02-10T11:29:26;97396.63;;;3.45;48.57
24892;BME280;12954;50.688;10.908;2023-02-10T11:31:55;97389.47;;;3.52;48.77
24892;BME280;12954;50.688;10.908;2023-02-10T11:34:27;97375.75;;;3.55;47.42
24892;BME280;12954;50.688;10.908;2023-02-10T11:36:59;97392.97;;;3.73;47.06
24892;BME280;12954;50.688;10.908;2023-02-10T11:39:39;97397.63;;;3.65;47.29
24892;BME280;12954;50.688;10.908;2023-02-10T11:42:16;97385.94;;;3.66;46.64
24892;BME280;12954;50.688;10.908;2023-02-10T11:44:54;97383.22;;;3.59;46.80
24892;BME280;12954;50.688;10.908;2023-02-10T11:47:24;97388.47;;;3.74;46.55
24892;BME280;12954;50.688;10.908;2023-02-10T11:49:53;97387.72;;;3.59;47.12
24892;BME280;12954;50.688;10.908;2023-02-10T11:52:24;97382.13;;;3.75;46.88
24892;BME280;12954;50.688;10.908;2023-02-10T11:54:54;97360.13;;;3.73;46.51
24892;BME280;12954;50.688;10.908;2023-02-10T11:57:36;97385.22;;;3.78;46.94
24892;BME280;12954;50.688;10.908;2023-02-10T12:00:29;97383.19;;;3.80;47.17
24892;BME280;12954;50.688;10.908;2023-02-10T12:03:34;97377.88;;;3.87;47.32
24892;BME280;12954;50.688;10.908;2023-02-10T12:06:09;97379.41;;;4.24;45.50
24892;BME280;12954;50.688;10.908;2023-02-10T12:08:47;97375.88;;;3.89;46.34
24892;BME280;12954;50.688;10.908;2023-02-10T12:11:25;97385.94;;;3.94;46.23
24892;BME280;12954;50.688;10.908;2023-02-10T12:14:04;97377.47;;;3.83;46.84
24892;BME280;12954;50.688;10.908;2023-02-10T12:16:39;97382.16;;;3.81;46.96
24892;BME280;12954;50.688;10.908;2023-02-10T12:19:17;97376.78;;;4.03;46.55
24892;BME280;12954;50.688;10.908;2023-02-10T12:21:58;97384.22;;;4.07;46.46
24892;BME280;12954;50.688;10.908;2023-02-10T12:24:57;97385.00;;;4.01;46.40
24892;BME280;12954;50.688;10.908;2023-02-10T12:27:37;97381.63;;;3.93;46.98
24892;BME280;12954;50.688;10.908;2023-02-10T12:30:22;97393.41;;;3.98;47.25
24892;BME280;12954;50.688;10.908;2023-02-10T12:32:59;97370.88;;;4.07;46.89
24892;BME280;12954;50.688;10.908;2023-02-10T12:35:42;97367.31;;;4.00;46.70
24892;BME280;12954;50.688;10.908;2023-02-10T12:38:30;97371.50;;;4.09;47.28
24892;BME280;12954;50.688;10.908;2023-02-10T12:41:11;97377.69;;;4.16;47.39
24892;BME280;12954;50.688;10.908;2023-02-10T12:43:58;97376.41;;;4.33;47.05
24892;BME280;12954;50.688;10.908;2023-02-10T12:46:35;97373.66;;;4.27;46.96
24892;BME280;12954;50.688;10.908;2023-02-10T12:49:12;97374.44;;;4.21;46.92
24892;BME280;12954;50.688;10.908;2023-02-10T12:51:54;97367.66;;;4.18;46.49
24892;BME280;12954;50.688;10.908;2023-02-10T12:54:33;97368.81;;;4.09;47.01
24892;BME280;12954;50.688;10.908;2023-02-10T12:57:14;97344.69;;;3.96;46.95
24892;BME280;12954;50.688;10.908;2023-02-10T12:59:52;97367.25;;;3.94;47.34
24892;BME280;12954;50.688;10.908;2023-02-10T13:02:27;97351.16;;;3.80;47.07
24892;BME280;12954;50.688;10.908;2023-02-10T13:05:02;97357.19;;;3.89;46.75
24892;BME280;12954;50.688;10.908;2023-02-10T13:07:39;97363.84;;;3.78;47.09
24892;BME280;12954;50.688;10.908;2023-02-10T13:10:19;97362.78;;;3.73;47.20
24892;BME280;12954;50.688;10.908;2023-02-10T13:12:50;97360.78;;;3.75;46.83
24892;BME280;12954;50.688;10.908;2023-02-10T13:15:25;97351.56;;;3.56;46.93
24892;BME280;12954;50.688;10.908;2023-02-10T13:17:55;97358.22;;;3.46;47.27
24892;BME280;12954;50.688;10.908;2023-02-10T13:20:29;97364.34;;;3.40;47.55
24892;BME280;12954;50.688;10.908;2023-02-10T13:23:10;97329.91;;;3.02;47.63
24892;BME280;12954;50.688;10.908;2023-02-10T13:25:56;97355.53;;;3.18;47.75
24892;BME280;12954;50.688;10.908;2023-02-10T13:28:34;97350.25;;;3.24;47.44
24892;BME280;12954;50.688;10.908;2023-02-10T13:31:19;97287.56;;;2.71;47.67